Time;durP1;ratioP1;P1;durP2;ratioP2;P2;SDS_P1;SDS_P2;PMS_P1;PMS_P2;Temp;Humidity;BMP_temperature;BMP_pressure;BME280_temperature;BME280_humidity;BME280_pressure;Samples;Min_cycle;Max_cycle;Signal;HPM_P1;HPM_P2
2023/10/24 00:00:59;;;;;;;;;;;10.00;99.90;;;;;;5090908;28;20380;-70
2023/10/24 00:03:24;;;;;;;18.45;9.82;;;10.40;99.90;;;;;;5091473;28;19927;-70
2023/10/24 00:05:51;;;;;;;14.80;9.30;;;10.00;99.90;;;;;;5091189;28;20087;-70
2023/10/24 00:08:17;;;;;;;17.70;9.32;;;10.00;99.90;;;;;;5090552;28;20094;-70
2023/10/24 00:10:43;;;;;;;15.85;9.73;;;10.00;99.90;;;;;;5091511;28;20495;-70
2023/10/24 00:13:08;;;;;;;18.80;9.98;;;10.20;99.90;;;;;;5091502;28;20051;-70
2023/10/24 00:15:34;;;;;;;16.42;8.95;;;10.00;99.90;;;;;;5090662;28;20123;-70
2023/10/24 00:17:59;;;;;;;15.32;9.25;;;10.00;99.90;;;;;;5091272;28;20060;-70
2023/10/24 00:20:25;;;;;;;14.88;9.27;;;10.00;99.90;;;;;;5091749;28;20086;-70
2023/10/24 00:22:51;;;;;;;15.90;9.75;;;10.00;99.90;;;;;;5090336;28;20094;-70
2023/10/24 00:25:16;;;;;;;16.75;9.52;;;9.90;99.90;;;;;;5091618;28;20044;-70
2023/10/24 00:27:42;;;;;;;14.82;9.82;;;10.00;99.90;;;;;;5090972;28;20173;-70
2023/10/24 00:30:08;;;;;;;16.73;9.25;;;10.00;99.90;;;;;;5090474;28;20126;-70
2023/10/24 00:32:34;;;;;;;15.82;9.48;;;10.00;99.90;;;;;;5091385;28;20402;-70
2023/10/24 00:34:59;;;;;;;16.30;10.15;;;9.90;99.90;;;;;;5092275;28;20123;-70
2023/10/24 00:37:25;;;;;;;15.77;9.90;;;9.90;99.90;;;;;;5090086;28;20043;-69
2023/10/24 00:39:50;;;;;;;17.38;9.45;;;10.10;99.90;;;;;;5090410;28;20101;-70
2023/10/24 00:42:19;;;;;;;14.52;9.43;;;10.30;99.90;;;;;;5091684;28;20048;-70
2023/10/24 00:44:44;;;;;;;17.40;9.57;;;10.00;99.90;;;;;;5091112;28;20130;-69
2023/10/24 00:47:10;;;;;;;18.25;10.35;;;10.00;99.90;;;;;;5090343;28;20062;-69
2023/10/24 00:49:36;;;;;;;19.00;10.02;;;10.20;99.90;;;;;;5090006;28;20052;-69
2023/10/24 00:52:02;;;;;;;18.30;10.07;;;10.20;99.90;;;;;;5090903;28;20456;-69
2023/10/24 00:54:29;;;;;;;21.52;10.00;;;10.00;99.90;;;;;;5091447;28;20105;-69
2023/10/24 00:56:55;;;;;;;17.98;10.27;;;10.00;99.90;;;;;;5090311;28;20084;-70
2023/10/24 00:59:23;;;;;;;17.08;10.55;;;10.00;99.90;;;;;;5091514;28;20459;-70
2023/10/24 01:01:49;;;;;;;20.95;10.80;;;9.90;99.90;;;;;;5090154;28;20467;-70
2023/10/24 01:04:18;;;;;;;17.58;10.70;;;9.90;99.90;;;;;;5091461;28;20048;-69
2023/10/24 01:06:44;;;;;;;17.92;10.82;;;10.00;99.90;;;;;;5091021;28;20055;-69
2023/10/24 01:09:10;;;;;;;16.05;10.25;;;9.90;99.90;;;;;;5090728;28;20048;-69
2023/10/24 01:11:36;;;;;;;17.90;10.77;;;10.10;99.90;;;;;;5090200;28;20127;-70
2023/10/24 01:14:02;;;;;;;19.67;10.57;;;9.90;99.90;;;;;;5092715;28;20059;-69
2023/10/24 01:16:28;;;;;;;22.63;10.70;;;10.00;99.90;;;;;;5094152;28;20040;-69
2023/10/24 01:18:54;;;;;;;20.45;10.93;;;9.90;99.90;;;;;;5093572;28;20154;-69
2023/10/24 01:21:20;;;;;;;19.90;11.27;;;9.90;99.90;;;;;;5094485;28;20142;-69
2023/10/24 01:23:46;;;;;;;21.00;11.85;;;10.60;99.90;;;;;;5094807;28;20040;-69
2023/10/24 01:26:16;;;;;;;20.73;11.07;;;9.90;99.90;;;;;;5092934;28;20538;-69
2023/10/24 01:28:42;;;;;;;20.70;10.82;;;9.90;99.90;;;;;;5094399;28;20487;-68
2023/10/24 01:31:07;;;;;;;17.77;11.20;;;9.90;99.90;;;;;;5093884;28;20101;-69
2023/10/24 01:33:33;;;;;;;20.20;11.07;;;9.90;99.90;;;;;;5093824;28;20047;-69
2023/10/24 01:35:59;;;;;;;21.73;11.45;;;9.90;99.90;;;;;;5095378;28;20044;-69
2023/10/24 01:38:27;;;;;;;20.38;11.35;;;10.30;99.90;;;;;;5093310;28;20051;-69
2023/10/24 01:40:53;;;;;;;21.95;11.48;;;10.30;99.90;;;;;;5093931;28;20048;-69
2023/10/24 01:43:18;;;;;;;22.70;11.48;;;9.90;99.90;;;;;;5093986;28;20051;-69
2023/10/24 01:45:44;;;;;;;21.10;11.45;;;10.00;99.90;;;;;;5094548;28;20411;-68
2023/10/24 01:48:10;;;;;;;22.25;12.13;;;9.90;99.90;;;;;;5094153;28;20059;-69
2023/10/24 01:50:35;;;;;;;17.63;11.35;;;9.90;99.90;;;;;;5092969;28;20055;-69
2023/10/24 01:53:01;;;;;;;17.63;10.77;;;9.90;99.90;;;;;;5092820;28;20138;-68
2023/10/24 01:55:26;;;;;;;19.13;10.40;;;9.90;99.90;;;;;;5093995;28;20048;-68
2023/10/24 01:57:52;;;;;;;20.08;10.80;;;9.90;99.90;;;;;;5094262;28;20032;-68
2023/10/24 02:00:18;;;;;;;19.20;10.85;;;9.90;99.90;;;;;;5092834;28;20047;-69
2023/10/24 02:02:44;;;;;;;19.60;11.57;;;9.90;99.90;;;;;;5093613;28;20047;-68
2023/10/24 02:05:12;;;;;;;20.48;11.63;;;9.90;99.90;;;;;;5093327;28;20457;-69
2023/10/24 02:07:38;;;;;;;18.80;11.65;;;10.00;99.90;;;;;;5092103;28;20123;-68
2023/10/24 02:10:04;;;;;;;16.10;10.70;;;9.90;99.90;;;;;;5092931;28;20182;-69
2023/10/24 02:12:30;;;;;;;18.83;11.20;;;9.90;99.90;;;;;;5093158;28;20051;-68
2023/10/24 02:14:56;;;;;;;19.85;12.30;;;10.20;99.90;;;;;;5092334;28;20047;-69
2023/10/24 02:17:21;;;;;;;21.05;12.23;;;9.90;99.90;;;;;;5093370;28;20057;-68
2023/10/24 02:19:47;;;;;;;20.50;11.73;;;10.00;99.90;;;;;;5094559;28;20075;-68
2023/10/24 02:22:13;;;;;;;17.85;10.93;;;10.20;99.90;;;;;;5093588;28;20044;-68
2023/10/24 02:24:39;;;;;;;;;;;9.80;99.90;;;;;;5093598;28;20074;-68
2023/10/24 02:27:05;;;;;;;19.20;11.60;;;9.90;99.90;;;;;;5094264;28;19967;-68
2023/10/24 02:29:33;;;;;;;21.77;11.70;;;9.90;99.90;;;;;;5092641;28;20371;-69
2023/10/24 02:32:00;;;;;;;19.00;12.00;;;9.90;99.90;;;;;;5092850;28;20071;-68
2023/10/24 02:34:26;;;;;;;20.30;11.60;;;10.00;99.90;;;;;;5093783;28;20044;-68
2023/10/24 02:36:53;;;;;;;21.45;11.77;;;9.90;99.90;;;;;;5093236;28;20043;-69
2023/10/24 02:39:20;;;;;;;18.52;11.65;;;10.10;99.90;;;;;;5094090;28;20419;-68
2023/10/24 02:41:46;;;;;;;18.65;10.98;;;9.90;99.90;;;;;;5091589;28;20036;-68
2023/10/24 02:44:12;;;;;;;21.60;12.18;;;9.90;99.90;;;;;;5092901;28;20077;-68
2023/10/24 02:46:37;;;;;;;19.67;11.65;;;9.90;99.90;;;;;;5092861;28;20606;-68
2023/10/24 02:49:03;;;;;;;;;;;9.90;99.90;;;;;;5091874;28;20067;-68
2023/10/24 02:51:28;;;;;;;17.77;10.52;;;9.90;99.90;;;;;;5092423;28;19920;-68
2023/10/24 02:53:54;;;;;;;17.17;10.52;;;9.80;99.90;;;;;;5089746;28;20039;-68
2023/10/24 02:56:20;;;;;;;;;;;9.90;99.90;;;;;;5088581;28;20533;-68
2023/10/24 02:58:51;;;;;;;19.05;11.07;;;10.20;99.90;;;;;;5092767;28;20287;-68
2023/10/24 03:01:17;;;;;;;19.10;11.38;;;10.80;99.90;;;;;;5092822;28;20108;-68
2023/10/24 03:03:43;;;;;;;19.40;10.77;;;9.80;99.90;;;;;;5092212;28;20043;-68
2023/10/24 03:06:18;;;;;;;16.48;11.13;;;9.90;99.90;;;;;;5091886;28;20395;-68
2023/10/24 03:08:45;;;;;;;21.42;11.40;;;9.90;99.90;;;;;;5092325;28;20040;-69
2023/10/24 03:11:10;;;;;;;17.85;11.32;;;9.90;99.90;;;;;;5090638;28;20043;-69
2023/10/24 03:13:36;;;;;;;20.30;11.10;;;10.00;99.90;;;;;;5089418;28;20062;-68
2023/10/24 03:16:05;;;;;;;;;;;10.60;99.90;;;;;;5088504;28;20036;-69
2023/10/24 03:18:32;;;;;;;18.95;10.30;;;9.90;99.90;;;;;;5089154;28;19926;-69
2023/10/24 03:20:59;;;;;;;18.30;10.55;;;9.90;99.90;;;;;;5089938;28;20046;-69
2023/10/24 03:23:24;;;;;;;16.95;10.77;;;9.90;99.90;;;;;;5085163;28;20135;-69
2023/10/24 03:25:51;;;;;;;17.15;11.00;;;10.00;99.90;;;;;;5081399;28;20123;-69
2023/10/24 03:28:17;;;;;;;18.52;10.50;;;10.00;99.90;;;;;;5089135;28;20406;-69
2023/10/24 03:30:43;;;;;;;16.05;9.85;;;10.10;99.90;;;;;;5083661;28;20036;-69
2023/10/24 03:33:09;;;;;;;16.27;10.07;;;9.90;99.90;;;;;;5088509;28;20055;-69
2023/10/24 03:35:35;;;;;;;16.88;9.52;;;10.20;99.90;;;;;;5091843;28;20036;-69
2023/10/24 03:38:01;;;;;;;13.82;9.25;;;10.00;99.90;;;;;;5090560;28;20048;-69
2023/10/24 03:40:27;;;;;;;14.68;8.38;;;10.00;99.90;;;;;;5092888;28;20040;-68
2023/10/24 03:42:55;;;;;;;13.95;9.20;;;10.00;99.90;;;;;;5091447;28;20052;-69
2023/10/24 03:45:21;;;;;;;14.48;9.05;;;10.00;99.90;;;;;;5091073;28;20044;-68
2023/10/24 03:47:48;;;;;;;14.15;8.68;;;10.10;99.90;;;;;;5091696;28;20109;-68
2023/10/24 03:50:15;;;;;;;13.18;8.40;;;10.20;99.90;;;;;;5091432;28;20506;-69
2023/10/24 03:52:40;;;;;;;13.32;7.60;;;10.10;99.90;;;;;;5092230;28;20044;-68
2023/10/24 03:55:09;;;;;;;11.98;7.82;;;10.00;99.90;;;;;;5091573;28;20040;-69
2023/10/24 03:57:34;;;;;;;10.93;7.47;;;10.10;99.90;;;;;;5091698;28;20048;-68
2023/10/24 04:00:00;;;;;;;12.15;8.02;;;10.70;99.90;;;;;;5091409;28;20387;-69
2023/10/24 04:02:28;;;;;;;12.50;8.23;;;10.20;99.90;;;;;;5091081;28;20090;-69
2023/10/24 04:04:53;;;;;;;12.85;8.20;;;10.20;99.90;;;;;;5091216;28;20044;-68
2023/10/24 04:07:19;;;;;;;13.10;7.85;;;10.20;99.90;;;;;;5090495;28;20062;-69
2023/10/24 04:09:45;;;;;;;11.98;7.70;;;10.30;99.90;;;;;;5091311;28;20036;-69
2023/10/24 04:12:10;;;;;;;12.73;8.40;;;10.40;99.90;;;;;;5091120;28;20039;-69
2023/10/24 04:14:36;;;;;;;14.32;9.05;;;10.20;99.90;;;;;;5090654;28;20483;-69
2023/10/24 04:17:02;;;;;;;12.27;8.88;;;10.30;99.90;;;;;;5091951;28;20131;-68
2023/10/24 04:19:27;;;;;;;12.15;8.60;;;10.30;99.90;;;;;;5092705;28;20110;-68
2023/10/24 04:21:53;;;;;;;13.70;8.68;;;10.30;99.90;;;;;;5089911;28;20479;-69
2023/10/24 04:24:18;;;;;;;14.77;8.98;;;10.40;99.90;;;;;;5090498;28;20036;-69
2023/10/24 04:26:44;;;;;;;14.50;8.65;;;10.40;99.90;;;;;;5090901;28;20036;-68
2023/10/24 04:29:10;;;;;;;13.02;8.77;;;10.50;99.90;;;;;;5087284;28;20125;-69
2023/10/24 04:31:35;;;;;;;12.60;8.77;;;10.70;99.90;;;;;;5090618;28;20048;-68
2023/10/24 04:34:02;;;;;;;;;;;10.40;99.90;;;;;;5090568;28;20403;-69
2023/10/24 04:36:28;;;;;;;11.70;8.68;;;10.40;99.90;;;;;;5090081;28;19924;-68
2023/10/24 04:38:53;;;;;;;14.65;9.77;;;10.40;99.90;;;;;;5091293;28;20051;-69
2023/10/24 04:41:19;;;;;;;13.85;9.48;;;10.50;99.90;;;;;;5090087;28;20129;-68
2023/10/24 04:43:45;;;;;;;12.93;9.35;;;10.50;99.90;;;;;;5090758;28;20086;-68
2023/10/24 04:46:10;;;;;;;;;;;10.50;99.90;;;;;;5091198;28;20045;-69
2023/10/24 04:48:36;;;;;;;12.85;8.77;;;10.80;99.90;;;;;;5091549;28;20352;-68
2023/10/24 04:51:08;;;;;;;15.32;9.55;;;10.70;99.90;;;;;;5094552;28;20054;-68
2023/10/24 04:53:33;;;;;;;13.93;9.48;;;10.60;99.90;;;;;;5094753;28;20044;-68
2023/10/24 04:56:03;;;;;;;14.75;9.55;;;10.60;99.90;;;;;;5093706;28;20048;-68
2023/10/24 04:58:29;;;;;;;15.63;10.18;;;10.60;99.90;;;;;;5093656;28;20048;-68
2023/10/24 05:00:55;;;;;;;17.30;10.70;;;10.60;99.90;;;;;;5091915;28;20044;-68
2023/10/24 05:03:20;;;;;;;14.00;9.45;;;10.60;99.90;;;;;;5092868;28;20054;-67
2023/10/24 05:05:46;;;;;;;15.60;9.55;;;10.60;99.90;;;;;;5092394;28;20364;-68
2023/10/24 05:08:12;;;;;;;13.45;9.40;;;10.70;99.90;;;;;;5089769;28;20088;-68
2023/10/24 05:10:39;;;;;;;14.63;9.45;;;11.00;99.90;;;;;;5088395;28;20043;-68
2023/10/24 05:13:04;;;;;;;14.52;9.23;;;10.70;99.90;;;;;;5083828;28;20028;-68
2023/10/24 05:15:30;;;;;;;15.27;10.00;;;10.80;99.90;;;;;;5086284;28;20510;-68
2023/10/24 05:17:56;;;;;;;15.57;9.85;;;10.80;99.90;;;;;;5087492;28;20508;-68
2023/10/24 05:20:30;;;;;;;16.73;10.85;;;11.60;99.90;;;;;;5088643;28;20036;-69
2023/10/24 05:22:55;;;;;;;16.05;10.48;;;10.80;99.90;;;;;;5090433;28;20040;-69
2023/10/24 05:25:21;;;;;;;16.95;10.77;;;10.80;99.90;;;;;;5093754;28;20100;-69
2023/10/24 05:27:47;;;;;;;13.68;9.77;;;10.90;99.90;;;;;;5094350;28;20472;-69
2023/10/24 05:30:12;;;;;;;17.85;12.45;;;10.90;99.90;;;;;;5093664;28;20044;-68
2023/10/24 05:32:38;;;;;;;17.20;12.25;;;10.90;99.90;;;;;;5093337;28;20488;-69
2023/10/24 05:35:04;;;;;;;19.13;12.35;;;11.00;99.90;;;;;;5090724;28;20047;-69
2023/10/24 05:37:29;;;;;;;19.65;13.13;;;10.90;99.90;;;;;;5093617;28;20453;-69
2023/10/24 05:39:55;;;;;;;18.67;12.90;;;11.00;99.90;;;;;;5093890;28;20063;-69
2023/10/24 05:42:21;;;;;;;18.85;12.50;;;11.10;99.90;;;;;;5094151;28;20105;-68
2023/10/24 05:44:46;;;;;;;18.83;13.70;;;11.10;99.90;;;;;;5094335;28;20134;-68
2023/10/24 05:47:12;;;;;;;21.85;13.88;;;11.10;99.90;;;;;;5094780;28;20040;-69
2023/10/24 05:49:40;;;;;;;20.98;13.60;;;11.20;99.90;;;;;;5094052;28;20062;-69
2023/10/24 05:52:06;;;;;;;18.13;13.38;;;11.20;99.90;;;;;;5094031;28;20052;-69
2023/10/24 05:54:32;;;;;;;17.35;11.95;;;11.20;99.90;;;;;;5093856;28;20043;-69
2023/10/24 05:57:00;;;;;;;18.45;12.77;;;11.20;99.90;;;;;;5093692;28;20052;-69
2023/10/24 05:59:26;;;;;;;17.88;12.57;;;11.30;99.90;;;;;;5092039;28;20047;-69
2023/10/24 06:01:52;;;;;;;16.40;11.60;;;11.30;99.90;;;;;;5093196;28;20406;-69
2023/10/24 06:04:18;;;;;;;15.73;11.88;;;11.40;99.90;;;;;;5095164;28;20044;-69
2023/10/24 06:06:43;;;;;;;16.17;11.98;;;11.40;99.90;;;;;;5092422;28;20536;-69
2023/10/24 06:09:12;;;;;;;16.80;11.80;;;11.40;99.90;;;;;;5092694;28;20105;-69
2023/10/24 06:11:41;;;;;;;16.63;11.65;;;11.30;99.90;;;;;;5093093;28;20136;-69
2023/10/24 06:14:06;;;;;;;14.50;10.68;;;11.40;99.90;;;;;;5092243;28;20399;-69
2023/10/24 06:16:32;;;;;;;15.60;11.38;;;11.50;99.90;;;;;;5093310;28;20044;-68
2023/10/24 06:18:58;;;;;;;14.85;11.23;;;11.60;99.90;;;;;;5093347;28;20048;-69
2023/10/24 06:21:24;;;;;;;14.55;9.95;;;11.50;99.90;;;;;;5092091;28;20531;-68
2023/10/24 06:23:50;;;;;;;14.90;10.85;;;11.70;99.90;;;;;;5092979;28;20040;-69
2023/10/24 06:26:17;;;;;;;16.33;11.60;;;11.60;99.90;;;;;;5093508;28;20403;-69
2023/10/24 06:28:43;;;;;;;16.33;11.15;;;11.70;99.90;;;;;;5093902;28;20052;-68
2023/10/24 06:31:08;;;;;;;15.02;11.60;;;11.50;99.90;;;;;;5093430;28;20046;-69
2023/10/24 06:33:34;;;;;;;15.13;10.52;;;11.40;99.90;;;;;;5091218;28;20044;-69
2023/10/24 06:36:00;;;;;;;15.82;11.73;;;11.50;99.90;;;;;;5089778;28;20062;-68
2023/10/24 06:38:26;;;;;;;16.00;10.70;;;11.60;99.90;;;;;;5091082;28;20652;-68
2023/10/24 06:40:52;;;;;;;16.13;11.32;;;11.50;99.90;;;;;;5091271;28;20403;-69
2023/10/24 06:43:18;;;;;;;18.60;11.48;;;11.90;99.90;;;;;;5090851;28;20751;-69
2023/10/24 06:45:47;;;;;;;15.50;11.52;;;11.50;99.90;;;;;;5070808;28;20036;-69
2023/10/24 06:48:14;;;;;;;17.85;11.27;;;11.50;99.90;;;;;;5071191;28;20061;-69
2023/10/24 06:50:39;;;;;;;18.05;11.50;;;11.50;99.90;;;;;;5072449;28;20127;-69
2023/10/24 06:53:09;;;;;;;16.65;11.13;;;11.40;99.90;;;;;;5073173;28;20136;-69
2023/10/24 06:55:36;;;;;;;15.68;11.80;;;11.40;99.90;;;;;;5088087;28;20047;-69
2023/10/24 06:58:06;;;;;;;16.05;10.98;;;11.40;99.90;;;;;;5092205;28;20055;-68
2023/10/24 07:00:32;;;;;;;15.05;10.20;;;11.70;99.90;;;;;;5092435;28;20040;-69
2023/10/24 07:02:58;;;;;;;15.32;10.07;;;11.60;99.90;;;;;;5091194;28;20071;-69
2023/10/24 07:05:24;;;;;;;14.40;8.65;;;11.60;99.90;;;;;;5092110;28;20111;-69
2023/10/24 07:07:49;;;;;;;13.85;9.90;;;11.60;99.90;;;;;;5092942;28;20123;-69
2023/10/24 07:10:15;;;;;;;14.00;10.18;;;11.60;99.90;;;;;;5092627;28;20032;-69
2023/10/24 07:12:41;;;;;;;13.40;8.90;;;11.50;99.90;;;;;;5091436;28;20139;-69
2023/10/24 07:15:08;;;;;;;13.68;8.73;;;11.50;99.90;;;;;;5091507;28;20110;-68
2023/10/24 07:17:34;;;;;;;13.85;8.18;;;11.60;99.90;;;;;;5091242;28;20056;-68
2023/10/24 07:20:00;;;;;;;13.20;8.18;;;11.60;99.90;;;;;;5091554;28;20060;-69
2023/10/24 07:22:29;;;;;;;11.18;7.97;;;11.60;99.90;;;;;;5092058;28;20071;-69
2023/10/24 07:24:54;;;;;;;11.35;7.20;;;11.60;99.90;;;;;;5090959;28;20055;-69
2023/10/24 07:27:21;;;;;;;11.68;7.22;;;11.70;99.90;;;;;;5092008;28;20048;-69
2023/10/24 07:29:47;;;;;;;12.13;8.30;;;11.70;99.90;;;;;;5091255;28;20487;-68
2023/10/24 07:32:13;;;;;;;12.00;7.72;;;11.80;99.90;;;;;;5092198;28;20047;-69
2023/10/24 07:34:41;;;;;;;14.68;8.57;;;11.80;99.90;;;;;;5091997;28;20050;-69
2023/10/24 07:37:08;;;;;;;13.57;8.00;;;11.50;99.90;;;;;;5090801;28;20044;-69
2023/10/24 07:39:34;;;;;;;11.82;7.57;;;11.50;99.90;;;;;;5091887;28;20047;-75
2023/10/24 07:42:00;;;;;;;12.88;7.65;;;11.50;99.90;;;;;;5090702;28;20400;-68
2023/10/24 07:44:26;;;;;;;12.75;7.75;;;11.50;99.90;;;;;;5092295;28;20803;-68
2023/10/24 07:46:54;;;;;;;10.60;7.05;;;11.60;99.90;;;;;;5092712;28;20054;-68
2023/10/24 07:49:20;;;;;;;10.30;7.13;;;11.50;99.90;;;;;;5090798;28;20123;-71
2023/10/24 07:51:46;;;;;;;8.88;5.97;;;11.50;99.90;;;;;;5086894;28;20558;-71
2023/10/24 07:54:12;;;;;;;9.68;6.50;;;11.90;99.90;;;;;;5082946;28;20036;-71
2023/10/24 07:56:41;;;;;;;8.75;6.53;;;12.00;99.90;;;;;;5086773;28;20043;-75
2023/10/24 07:59:07;;;;;;;9.55;6.68;;;11.60;99.90;;;;;;5090528;28;20042;-74
2023/10/24 08:01:34;;;;;;;11.50;7.65;;;11.50;99.90;;;;;;5090764;28;20047;-72
2023/10/24 08:03:59;;;;;;;11.57;7.78;;;11.60;99.90;;;;;;5090524;28;20482;-71
2023/10/24 08:06:25;;;;;;;11.50;7.45;;;11.50;99.90;;;;;;5090777;28;20079;-74
2023/10/24 08:08:51;;;;;;;12.52;7.93;;;12.20;99.90;;;;;;5090890;28;20146;-75
2023/10/24 08:11:16;;;;;;;11.85;7.30;;;11.50;99.90;;;;;;5090302;28;20736;-74
2023/10/24 08:13:42;;;;;;;13.38;8.27;;;11.40;99.90;;;;;;5090083;28;20048;-73
2023/10/24 08:16:07;;;;;;;14.82;9.55;;;11.40;99.90;;;;;;5090654;28;20040;-80
2023/10/24 08:18:34;;;;;;;16.02;8.20;;;11.60;99.90;;;;;;5078954;28;20056;-78
2023/10/24 08:21:07;;;;;;;14.35;8.35;;;11.50;99.90;;;;;;5089237;28;20049;-81
2023/10/24 08:23:33;;;;;;;15.73;9.38;;;12.20;99.90;;;;;;5093655;28;20051;-72
2023/10/24 08:25:58;;;;;;;14.52;9.38;;;12.50;99.90;;;;;;5094235;28;20101;-73
2023/10/24 08:28:24;;;;;;;14.88;9.45;;;12.10;99.90;;;;;;5084271;28;20054;-71
2023/10/24 08:30:50;;;;;;;14.02;9.38;;;11.50;99.90;;;;;;5093250;28;20072;-71
2023/10/24 08:33:19;;;;;;;15.25;9.88;;;11.70;99.90;;;;;;5089494;28;20036;-71
2023/10/24 08:35:48;;;;;;;16.83;9.15;;;11.40;99.90;;;;;;5091071;28;20044;-72
2023/10/24 08:38:14;;;;;;;15.25;8.80;;;11.40;99.90;;;;;;5093821;28;20079;-71
2023/10/24 08:40:40;;;;;;;16.98;11.10;;;11.50;99.90;;;;;;5087471;28;20101;-73
2023/10/24 08:43:06;;;;;;;15.07;9.38;;;11.60;99.90;;;;;;5086733;28;20049;-73
2023/10/24 08:45:38;;;;;;;17.80;10.68;;;11.80;99.90;;;;;;5090288;28;20055;-71
2023/10/24 08:48:05;;;;;;;19.20;12.23;;;11.50;99.90;;;;;;5088918;28;20052;-71
2023/10/24 08:50:34;;;;;;;22.17;13.98;;;11.50;99.90;;;;;;5093876;28;20491;-70
2023/10/24 08:53:01;;;;;;;24.88;15.43;;;11.50;99.90;;;;;;5092829;28;20040;-78
2023/10/24 08:55:28;;;;;;;23.73;15.05;;;11.60;99.90;;;;;;5086082;28;20044;-71
2023/10/24 08:57:54;;;;;;;21.30;12.75;;;11.80;99.90;;;;;;5089692;28;20044;-72
2023/10/24 09:00:20;;;;;;;23.90;13.93;;;11.80;99.90;;;;;;5089869;28;20507;-72
2023/10/24 09:02:46;;;;;;;24.17;14.63;;;11.60;99.90;;;;;;5090416;28;20040;-71
2023/10/24 09:05:13;;;;;;;20.83;14.07;;;11.60;99.90;;;;;;5085439;28;20123;-71
2023/10/24 09:07:40;;;;;;;22.30;14.48;;;11.70;99.90;;;;;;5090771;28;20061;-71
2023/10/24 09:10:08;;;;;;;22.55;15.60;;;11.80;99.90;;;;;;5092771;28;20048;-71
2023/10/24 09:12:34;;;;;;;22.98;14.90;;;11.70;99.90;;;;;;5093563;28;20051;-71
2023/10/24 09:15:01;;;;;;;21.30;12.68;;;11.80;99.90;;;;;;5091862;28;20036;-71
2023/10/24 09:17:30;;;;;;;22.27;13.77;;;11.70;99.90;;;;;;5093171;28;20073;-71
2023/10/24 09:19:56;;;;;;;23.67;14.38;;;11.90;99.90;;;;;;5086690;28;20090;-71
2023/10/24 09:22:22;;;;;;;20.90;14.80;;;11.80;99.90;;;;;;5078103;28;20047;-72
2023/10/24 09:24:50;;;;;;;20.90;13.90;;;11.80;99.90;;;;;;5081796;28;20058;-71
2023/10/24 09:27:27;;;;;;;22.88;15.35;;;11.90;99.90;;;;;;5069762;28;20060;-72
2023/10/24 09:29:53;;;;;;;18.50;11.50;;;11.80;99.90;;;;;;5070620;28;20378;-71
2023/10/24 09:32:20;;;;;;;20.48;13.30;;;11.80;99.90;;;;;;5071357;28;20484;-72
2023/10/24 09:34:46;;;;;;;23.40;14.60;;;11.90;99.90;;;;;;5071317;28;20076;-72
2023/10/24 09:37:13;;;;;;;23.70;15.50;;;12.10;99.90;;;;;;5071822;28;20040;-72
2023/10/24 09:39:59;;;;;;;20.73;14.15;;;11.90;99.90;;;;;;5079235;28;20828;-71
2023/10/24 09:42:27;;;;;;;25.43;16.57;;;11.80;99.90;;;;;;5093115;28;20095;-72
2023/10/24 09:44:54;;;;;;;24.83;17.23;;;11.90;99.90;;;;;;5086172;28;20305;-72
2023/10/24 09:47:21;;;;;;;22.80;15.25;;;11.80;99.90;;;;;;5073653;28;20515;-73
2023/10/24 09:49:51;;;;;;;27.13;16.15;;;11.90;99.90;;;;;;5072448;28;20063;-72
2023/10/24 09:52:19;;;;;;;22.70;14.52;;;11.90;99.90;;;;;;5072292;28;20139;-72
2023/10/24 09:54:55;;;;;;;24.90;15.52;;;11.90;99.90;;;;;;5077240;28;20044;-71
2023/10/24 09:57:22;;;;;;;21.98;14.55;;;11.80;99.90;;;;;;5092125;28;20047;-72
2023/10/24 09:59:55;;;;;;;24.40;15.93;;;12.20;99.90;;;;;;5091526;28;20498;-71
2023/10/24 10:02:23;;;;;;;26.00;15.95;;;11.80;99.90;;;;;;5092619;28;20503;-72
2023/10/24 10:04:50;;;;;;;20.75;13.43;;;11.80;99.90;;;;;;5090430;28;20036;-72
2023/10/24 10:07:17;;;;;;;26.33;15.27;;;12.00;99.90;;;;;;5092299;28;20172;-72
2023/10/24 10:09:46;;;;;;;22.55;14.80;;;12.00;99.90;;;;;;5092086;28;20089;-70
2023/10/24 10:12:13;;;;;;;19.92;13.27;;;12.40;99.90;;;;;;5091546;28;20044;-71
2023/10/24 10:14:50;;;;;;;23.45;15.05;;;12.00;99.90;;;;;;5092949;28;20411;-73
2023/10/24 10:17:29;;;;;;;26.15;16.05;;;11.90;99.90;;;;;;5088465;28;20667;-72
2023/10/24 10:20:12;;;;;;;23.13;14.02;;;11.90;99.90;;;;;;5091201;28;20051;-71
2023/10/24 10:23:03;;;;;;;23.13;15.57;;;11.90;99.90;;;;;;5092407;28;20208;-74
2023/10/24 10:25:54;;;;;;;24.77;15.05;;;12.00;99.90;;;;;;5091136;28;20402;-70
2023/10/24 10:28:57;;;;;;;23.58;15.15;;;12.00;99.90;;;;;;5091758;28;20039;-71
2023/10/24 10:31:31;;;;;;;23.98;16.55;;;12.10;99.90;;;;;;5092071;28;20050;-72
2023/10/24 10:33:57;;;;;;;26.08;16.60;;;12.10;99.90;;;;;;5091093;28;20040;-72
2023/10/24 10:36:25;;;;;;;23.52;16.08;;;12.20;99.90;;;;;;5075981;28;20135;-70
2023/10/24 10:38:51;;;;;;;25.08;15.93;;;12.20;99.90;;;;;;5071101;28;20036;-71
2023/10/24 10:41:23;;;;;;;25.15;16.77;;;12.20;99.90;;;;;;5082191;28;20040;-71
2023/10/24 10:43:59;;;;;;;23.85;16.38;;;12.10;99.90;;;;;;5091731;28;20487;-71
2023/10/24 10:46:32;;;;;;;26.15;17.23;;;12.50;99.90;;;;;;5091970;28;20127;-70
2023/10/24 10:49:04;;;;;;;27.40;16.48;;;12.30;99.90;;;;;;5089704;28;20055;-71
2023/10/24 10:51:36;;;;;;;24.92;15.43;;;12.00;99.90;;;;;;5087152;28;20056;-71
2023/10/24 10:54:21;;;;;;;22.00;15.05;;;12.00;99.90;;;;;;5091046;28;20055;-70
2023/10/24 10:56:49;;;;;;;24.90;16.90;;;12.00;99.90;;;;;;5088118;28;20403;-70
2023/10/24 10:59:34;;;;;;;22.35;14.70;;;12.00;99.90;;;;;;5090934;28;20071;-70
2023/10/24 11:02:28;;;;;;;22.02;14.70;;;12.10;99.90;;;;;;5089636;28;20047;-70
2023/10/24 11:04:53;;;;;;;21.23;13.93;;;12.00;99.90;;;;;;5090576;28;20032;-71
2023/10/24 11:07:52;;;;;;;23.05;14.48;;;12.60;99.90;;;;;;5089145;28;20050;-71
2023/10/24 11:10:18;;;;;;;20.90;12.85;;;12.10;99.90;;;;;;5089833;28;20040;-72
2023/10/24 11:12:47;;;;;;;23.05;16.42;;;12.20;99.90;;;;;;5091264;28;20446;-71
2023/10/24 11:15:13;;;;;;;23.75;15.45;;;12.10;99.90;;;;;;5086601;28;20119;-70
2023/10/24 11:17:40;;;;;;;22.60;15.07;;;12.10;99.90;;;;;;5070394;28;20795;-70
2023/10/24 11:20:08;;;;;;;26.40;16.27;;;12.10;99.90;;;;;;5079554;28;20491;-70
2023/10/24 11:22:34;;;;;;;20.42;13.27;;;12.10;99.90;;;;;;5090224;28;20131;-70
2023/10/24 11:25:07;;;;;;;24.77;16.05;;;12.20;99.90;;;;;;5085683;28;20377;-69
2023/10/24 11:27:33;;;;;;;17.48;11.73;;;12.20;99.90;;;;;;5070131;28;20082;-69
2023/10/24 11:29:59;;;;;;;20.83;14.75;;;12.20;99.90;;;;;;5077394;28;20080;-69
2023/10/24 11:32:25;;;;;;;20.58;13.05;;;12.30;99.90;;;;;;5090694;28;20134;-71
2023/10/24 11:34:50;;;;;;;22.55;14.38;;;12.20;99.90;;;;;;5090912;28;20044;-68
2023/10/24 11:37:16;;;;;;;24.08;14.50;;;12.30;99.90;;;;;;5089892;28;20048;-72
2023/10/24 11:39:42;;;;;;;20.25;14.75;;;12.30;99.90;;;;;;5090894;28;20043;-68
2023/10/24 11:42:08;;;;;;;22.70;16.13;;;12.30;99.90;;;;;;5071812;28;20048;-70
2023/10/24 11:44:33;;;;;;;21.95;16.42;;;12.20;99.90;;;;;;5070129;28;20055;-71
2023/10/24 11:47:01;;;;;;;18.75;13.77;;;12.20;99.90;;;;;;5090493;28;20121;-72
2023/10/24 11:49:35;;;;;;;22.35;14.95;;;12.20;99.90;;;;;;5090233;28;20052;-70
2023/10/24 11:52:01;;;;;;;20.08;14.73;;;12.10;99.90;;;;;;5072940;28;20088;-71
2023/10/24 11:54:27;;;;;;;17.42;11.13;;;12.30;99.90;;;;;;5070668;28;20052;-70
2023/10/24 11:56:53;;;;;;;19.42;13.93;;;12.30;99.90;;;;;;5069845;28;20052;-69
2023/10/24 11:59:19;;;;;;;19.40;14.77;;;12.20;99.90;;;;;;5071904;28;20036;-71
2023/10/24 12:01:45;;;;;;;19.65;13.80;;;12.20;99.90;;;;;;5078397;28;20385;-73
2023/10/24 12:04:15;;;;;;;19.30;14.18;;;12.30;99.90;;;;;;5069915;28;20400;-73
2023/10/24 12:06:41;;;;;;;17.33;12.32;;;12.30;99.90;;;;;;5073236;28;20044;-71
2023/10/24 12:09:07;;;;;;;15.82;11.43;;;12.40;99.90;;;;;;5069740;28;20442;-71
2023/10/24 12:11:33;;;;;;;17.27;12.32;;;12.40;99.90;;;;;;5089223;28;20079;-71
2023/10/24 12:14:00;;;;;;;17.55;12.52;;;12.40;99.90;;;;;;5090255;28;20048;-71
2023/10/24 12:16:30;;;;;;;16.25;11.80;;;12.50;99.90;;;;;;5088586;28;20040;-71
2023/10/24 12:18:56;;;;;;;17.33;11.70;;;12.60;99.90;;;;;;5088761;28;20048;-71
2023/10/24 12:21:22;;;;;;;16.80;11.90;;;12.50;99.90;;;;;;5089654;28;20119;-70
2023/10/24 12:23:48;;;;;;;15.55;11.63;;;12.40;99.90;;;;;;5090249;28;20412;-71
2023/10/24 12:26:14;;;;;;;14.18;9.77;;;12.40;99.90;;;;;;5090395;28;20051;-70
2023/10/24 12:28:45;;;;;;;14.20;11.05;;;12.40;99.90;;;;;;5089879;28;20044;-70
2023/10/24 12:31:11;;;;;;;14.45;10.73;;;12.30;99.90;;;;;;5089387;28;20548;-71
2023/10/24 12:33:38;;;;;;;15.07;11.43;;;12.20;99.90;;;;;;5089333;28;20498;-70